Hinckley, United Kingdom
Current Conditions -  °F | °C
As of 11:20 PM on Thursday 27 Nov 2014 (Local Time) from EGBE Reporting Station
Haze Haze  
Wind Chill:   Ceiling: 500
Heat Index:   Visibility: 2.5mi
Dew Point:   Wind: 7mph
Humidity: 100%   Direction: 90°E
Pressure: 29.59"   Gusts: NA
Location:  52.54°N, 1.37°W
Report Text: EGBE 272320Z 09006KT 4000 BR BKN005 09/09 Q1002
Loading
Personal Weather Stations






























Interactive Weather Map New forecast layout! Learn more

10-Day Weather Forecast

Advertisements
Track Severe Weather on mobile